sensor_id;sensor_type;location;lat;lon;timestamp;pressure;altitude;pressure_sealevel;temperature;humidity
49645;BME280;36494;50.730;-1.932;2022-10-26T00:00:09;100040.35;;;15.75;100.00
49645;BME280;36494;50.730;-1.932;2022-10-26T00:02:34;100038.76;;;15.76;100.00
49645;BME280;36494;50.730;-1.932;2022-10-26T00:04:59;100040.39;;;15.81;100.00
49645;BME280;36494;50.730;-1.932;2022-10-26T00:07:24;100046.43;;;15.76;100.00
49645;BME280;36494;50.730;-1.932;2022-10-26T00:09:49;100048.45;;;15.74;100.00
49645;BME280;36494;50.730;-1.932;2022-10-26T00:12:15;100049.41;;;15.75;100.00
49645;BME280;36494;50.730;-1.932;2022-10-26T00:14:41;100043.06;;;15.75;100.00
49645;BME280;36494;50.730;-1.932;2022-10-26T00:17:07;100035.04;;;15.75;100.00
49645;BME280;36494;50.730;-1.932;2022-10-26T00:19:33;100034.90;;;15.74;100.00
49645;BME280;36494;50.730;-1.932;2022-10-26T00:21:58;100031.55;;;15.73;100.00
49645;BME280;36494;50.730;-1.932;2022-10-26T00:24:23;100035.34;;;15.72;100.00
49645;BME280;36494;50.730;-1.932;2022-10-26T00:26:49;100030.31;;;15.74;100.00
49645;BME280;36494;50.730;-1.932;2022-10-26T00:29:15;100021.80;;;15.72;100.00
49645;BME280;36494;50.730;-1.932;2022-10-26T00:31:41;100031.52;;;15.72;100.00
49645;BME280;36494;50.730;-1.932;2022-10-26T00:34:09;100026.91;;;15.76;100.00
49645;BME280;36494;50.730;-1.932;2022-10-26T00:36:32;100039.55;;;15.71;100.00
49645;BME280;36494;50.730;-1.932;2022-10-26T00:38:57;100049.31;;;15.75;100.00
49645;BME280;36494;50.730;-1.932;2022-10-26T00:41:24;100035.97;;;15.75;100.00
49645;BME280;36494;50.730;-1.932;2022-10-26T00:43:48;100030.55;;;15.77;100.00
49645;BME280;36494;50.730;-1.932;2022-10-26T00:46:16;100027.44;;;15.82;100.00
49645;BME280;36494;50.730;-1.932;2022-10-26T00:48:42;100029.72;;;15.73;100.00
49645;BME280;36494;50.730;-1.932;2022-10-26T00:51:07;100031.86;;;15.80;100.00
49645;BME280;36494;50.730;-1.932;2022-10-26T00:53:30;100026.76;;;15.76;100.00
49645;BME280;36494;50.730;-1.932;2022-10-26T00:55:55;100023.33;;;15.80;100.00
49645;BME280;36494;50.730;-1.932;2022-10-26T00:58:21;100026.50;;;15.87;100.00
49645;BME280;36494;50.730;-1.932;2022-10-26T01:00:46;100026.36;;;15.88;100.00
49645;BME280;36494;50.730;-1.932;2022-10-26T01:03:11;100024.31;;;15.89;100.00
49645;BME280;36494;50.730;-1.932;2022-10-26T01:05:40;100031.90;;;15.92;100.00
49645;BME280;36494;50.730;-1.932;2022-10-26T01:08:02;100022.22;;;15.93;100.00
49645;BME280;36494;50.730;-1.932;2022-10-26T01:10:28;100023.14;;;15.96;100.00
49645;BME280;36494;50.730;-1.932;2022-10-26T01:12:55;100024.76;;;15.95;100.00
49645;BME280;36494;50.730;-1.932;2022-10-26T01:15:20;100015.39;;;15.97;100.00
49645;BME280;36494;50.730;-1.932;2022-10-26T01:17:53;100021.42;;;16.01;100.00
49645;BME280;36494;50.730;-1.932;2022-10-26T01:20:26;100022.32;;;16.00;100.00
49645;BME280;36494;50.730;-1.932;2022-10-26T01:22:38;100021.56;;;16.00;100.00
49645;BME280;36494;50.730;-1.932;2022-10-26T01:25:11;100023.75;;;16.02;100.00
49645;BME280;36494;50.730;-1.932;2022-10-26T01:27:28;100027.54;;;16.07;100.00
49645;BME280;36494;50.730;-1.932;2022-10-26T01:30:12;100031.51;;;16.07;100.00
49645;BME280;36494;50.730;-1.932;2022-10-26T01:32:22;100034.38;;;16.15;100.00
49645;BME280;36494;50.730;-1.932;2022-10-26T01:34:45;100027.94;;;16.07;100.00
49645;BME280;36494;50.730;-1.932;2022-10-26T01:37:11;100030.14;;;16.07;100.00
49645;BME280;36494;50.730;-1.932;2022-10-26T01:39:38;100034.11;;;16.15;100.00
49645;BME280;36494;50.730;-1.932;2022-10-26T01:42:00;100032.77;;;16.06;100.00
49645;BME280;36494;50.730;-1.932;2022-10-26T01:44:26;100034.28;;;16.05;100.00
49645;BME280;36494;50.730;-1.932;2022-10-26T01:46:52;100040.43;;;16.02;100.00
49645;BME280;36494;50.730;-1.932;2022-10-26T01:49:20;100042.48;;;16.00;100.00
49645;BME280;36494;50.730;-1.932;2022-10-26T01:51:42;100044.78;;;16.07;100.00
49645;BME280;36494;50.730;-1.932;2022-10-26T01:54:06;100043.83;;;16.01;100.00
49645;BME280;36494;50.730;-1.932;2022-10-26T01:56:36;100043.30;;;16.07;100.00
49645;BME280;36494;50.730;-1.932;2022-10-26T01:59:10;100041.96;;;16.13;100.00
49645;BME280;36494;50.730;-1.932;2022-10-26T02:01:34;100043.38;;;16.10;100.00
49645;BME280;36494;50.730;-1.932;2022-10-26T02:03:53;100039.87;;;16.17;100.00
49645;BME280;36494;50.730;-1.932;2022-10-26T02:06:19;100038.01;;;16.08;100.00
49645;BME280;36494;50.730;-1.932;2022-10-26T02:08:52;100049.11;;;16.12;100.00
49645;BME280;36494;50.730;-1.932;2022-10-26T02:11:14;100051.34;;;16.15;100.00
49645;BME280;36494;50.730;-1.932;2022-10-26T02:13:33;100045.74;;;16.16;100.00
49645;BME280;36494;50.730;-1.932;2022-10-26T02:15:58;100053.84;;;16.13;100.00
49645;BME280;36494;50.730;-1.932;2022-10-26T02:18:26;100053.14;;;16.09;100.00
49645;BME280;36494;50.730;-1.932;2022-10-26T02:20:50;100053.73;;;16.13;100.00
49645;BME280;36494;50.730;-1.932;2022-10-26T02:23:13;100059.38;;;15.98;100.00
49645;BME280;36494;50.730;-1.932;2022-10-26T02:25:41;100060.57;;;15.95;100.00
49645;BME280;36494;50.730;-1.932;2022-10-26T02:28:05;100064.32;;;15.97;100.00
49645;BME280;36494;50.730;-1.932;2022-10-26T02:30:29;100061.49;;;15.96;100.00
49645;BME280;36494;50.730;-1.932;2022-10-26T02:32:55;100063.19;;;15.85;100.00
49645;BME280;36494;50.730;-1.932;2022-10-26T02:35:23;100060.92;;;15.91;100.00
49645;BME280;36494;50.730;-1.932;2022-10-26T02:37:46;100068.70;;;15.86;100.00
49645;BME280;36494;50.730;-1.932;2022-10-26T02:40:13;100075.33;;;15.88;100.00
49645;BME280;36494;50.730;-1.932;2022-10-26T02:42:36;100074.76;;;15.90;100.00
49645;BME280;36494;50.730;-1.932;2022-10-26T02:45:05;100074.97;;;15.82;100.00
49645;BME280;36494;50.730;-1.932;2022-10-26T02:47:26;100081.37;;;15.84;100.00
49645;BME280;36494;50.730;-1.932;2022-10-26T02:49:52;100078.55;;;15.81;100.00
49645;BME280;36494;50.730;-1.932;2022-10-26T02:52:21;100084.52;;;15.76;100.00
49645;BME280;36494;50.730;-1.932;2022-10-26T02:54:50;100081.36;;;15.82;100.00
49645;BME280;36494;50.730;-1.932;2022-10-26T02:57:12;100081.10;;;15.77;100.00
49645;BME280;36494;50.730;-1.932;2022-10-26T02:59:36;100079.74;;;15.73;100.00
49645;BME280;36494;50.730;-1.932;2022-10-26T03:01:59;100081.06;;;15.76;100.00
49645;BME280;36494;50.730;-1.932;2022-10-26T03:04:28;100072.28;;;15.79;100.00
49645;BME280;36494;50.730;-1.932;2022-10-26T03:06:53;100073.11;;;15.83;100.00
49645;BME280;36494;50.730;-1.932;2022-10-26T03:09:15;100067.91;;;15.79;100.00
49645;BME280;36494;50.730;-1.932;2022-10-26T03:11:40;100068.40;;;15.70;100.00
49645;BME280;36494;50.730;-1.932;2022-10-26T03:14:05;100062.71;;;15.77;100.00
49645;BME280;36494;50.730;-1.932;2022-10-26T03:16:30;100065.34;;;15.71;100.00
49645;BME280;36494;50.730;-1.932;2022-10-26T03:18:56;100072.87;;;15.71;100.00
49645;BME280;36494;50.730;-1.932;2022-10-26T03:21:22;100082.51;;;15.67;100.00
49645;BME280;36494;50.730;-1.932;2022-10-26T03:23:47;100084.77;;;15.67;100.00
49645;BME280;36494;50.730;-1.932;2022-10-26T03:26:12;100085.51;;;15.68;100.00
49645;BME280;36494;50.730;-1.932;2022-10-26T03:28:40;100093.77;;;15.69;100.00
49645;BME280;36494;50.730;-1.932;2022-10-26T03:31:03;100095.38;;;15.59;100.00
49645;BME280;36494;50.730;-1.932;2022-10-26T03:33:28;100100.88;;;15.66;100.00
49645;BME280;36494;50.730;-1.932;2022-10-26T03:35:54;100106.62;;;15.72;100.00
49645;BME280;36494;50.730;-1.932;2022-10-26T03:38:19;100108.25;;;15.66;100.00
49645;BME280;36494;50.730;-1.932;2022-10-26T03:40:45;100105.54;;;15.67;100.00
49645;BME280;36494;50.730;-1.932;2022-10-26T03:43:10;100101.28;;;15.73;100.00
49645;BME280;36494;50.730;-1.932;2022-10-26T03:45:36;100108.44;;;15.67;100.00
49645;BME280;36494;50.730;-1.932;2022-10-26T03:48:01;100110.00;;;15.66;100.00
49645;BME280;36494;50.730;-1.932;2022-10-26T03:50:26;100101.78;;;15.65;100.00
49645;BME280;36494;50.730;-1.932;2022-10-26T03:52:52;100102.96;;;15.70;100.00
49645;BME280;36494;50.730;-1.932;2022-10-26T03:55:17;100104.85;;;15.72;100.00
49645;BME280;36494;50.730;-1.932;2022-10-26T03:57:43;100111.90;;;15.68;100.00
49645;BME280;36494;50.730;-1.932;2022-10-26T04:00:09;100121.62;;;15.73;100.00
49645;BME280;36494;50.730;-1.932;2022-10-26T04:02:33;100110.17;;;15.70;100.00
49645;BME280;36494;50.730;-1.932;2022-10-26T04:04:58;100113.61;;;15.66;100.00
49645;BME280;36494;50.730;-1.932;2022-10-26T04:07:24;100120.92;;;15.72;100.00
49645;BME280;36494;50.730;-1.932;2022-10-26T04:09:49;100122.21;;;15.78;100.00
49645;BME280;36494;50.730;-1.932;2022-10-26T04:12:15;100122.75;;;15.70;100.00
49645;BME280;36494;50.730;-1.932;2022-10-26T04:14:41;100124.56;;;15.69;100.00
49645;BME280;36494;50.730;-1.932;2022-10-26T04:17:06;100124.02;;;15.78;100.00
49645;BME280;36494;50.730;-1.932;2022-10-26T04:19:32;100129.40;;;15.77;100.00
49645;BME280;36494;50.730;-1.932;2022-10-26T04:21:57;100128.36;;;15.76;100.00
49645;BME280;36494;50.730;-1.932;2022-10-26T04:24:22;100130.68;;;15.76;100.00
49645;BME280;36494;50.730;-1.932;2022-10-26T04:26:48;100132.76;;;15.72;100.00
49645;BME280;36494;50.730;-1.932;2022-10-26T04:29:14;100122.55;;;15.65;100.00
49645;BME280;36494;50.730;-1.932;2022-10-26T04:31:39;100130.41;;;15.77;100.00
49645;BME280;36494;50.730;-1.932;2022-10-26T04:34:04;100126.06;;;15.80;100.00
49645;BME280;36494;50.730;-1.932;2022-10-26T04:36:29;100134.09;;;15.81;100.00
49645;BME280;36494;50.730;-1.932;2022-10-26T04:38:55;100128.71;;;15.80;100.00
49645;BME280;36494;50.730;-1.932;2022-10-26T04:41:21;100134.88;;;15.90;100.00
49645;BME280;36494;50.730;-1.932;2022-10-26T04:43:47;100130.88;;;15.90;100.00
49645;BME280;36494;50.730;-1.932;2022-10-26T04:46:12;100147.82;;;15.88;100.00
49645;BME280;36494;50.730;-1.932;2022-10-26T04:48:38;100144.97;;;15.88;100.00
49645;BME280;36494;50.730;-1.932;2022-10-26T04:51:03;100142.34;;;15.90;100.00
49645;BME280;36494;50.730;-1.932;2022-10-26T04:53:28;100139.84;;;15.86;100.00
49645;BME280;36494;50.730;-1.932;2022-10-26T04:55:55;100137.16;;;15.87;100.00
49645;BME280;36494;50.730;-1.932;2022-10-26T04:58:19;100140.79;;;15.87;100.00
49645;BME280;36494;50.730;-1.932;2022-10-26T05:00:45;100137.00;;;15.84;100.00
49645;BME280;36494;50.730;-1.932;2022-10-26T05:03:10;100137.23;;;15.88;100.00
49645;BME280;36494;50.730;-1.932;2022-10-26T05:05:36;100138.36;;;15.83;100.00
49645;BME280;36494;50.730;-1.932;2022-10-26T05:08:00;100135.14;;;15.83;100.00
49645;BME280;36494;50.730;-1.932;2022-10-26T05:10:27;100136.07;;;15.86;100.00
49645;BME280;36494;50.730;-1.932;2022-10-26T05:12:52;100138.18;;;15.84;100.00
49645;BME280;36494;50.730;-1.932;2022-10-26T05:15:17;100139.13;;;15.85;100.00
49645;BME280;36494;50.730;-1.932;2022-10-26T05:17:42;100137.74;;;15.92;100.00
49645;BME280;36494;50.730;-1.932;2022-10-26T05:20:08;100137.55;;;15.94;100.00
49645;BME280;36494;50.730;-1.932;2022-10-26T05:22:33;100143.32;;;15.89;100.00
49645;BME280;36494;50.730;-1.932;2022-10-26T05:24:59;100138.46;;;15.87;100.00
49645;BME280;36494;50.730;-1.932;2022-10-26T05:27:25;100139.43;;;15.86;100.00
49645;BME280;36494;50.730;-1.932;2022-10-26T05:29:50;100141.41;;;15.88;100.00
49645;BME280;36494;50.730;-1.932;2022-10-26T05:32:16;100152.65;;;15.82;100.00
49645;BME280;36494;50.730;-1.932;2022-10-26T05:34:42;100149.93;;;15.82;100.00
49645;BME280;36494;50.730;-1.932;2022-10-26T05:37:07;100153.52;;;15.84;100.00
49645;BME280;36494;50.730;-1.932;2022-10-26T05:39:32;100148.92;;;15.81;100.00
49645;BME280;36494;50.730;-1.932;2022-10-26T05:41:58;100154.23;;;15.87;100.00
49645;BME280;36494;50.730;-1.932;2022-10-26T05:44:24;100151.43;;;15.76;100.00
49645;BME280;36494;50.730;-1.932;2022-10-26T05:46:49;100152.80;;;15.73;100.00
49645;BME280;36494;50.730;-1.932;2022-10-26T05:49:14;100152.80;;;15.74;100.00
49645;BME280;36494;50.730;-1.932;2022-10-26T05:51:40;100157.27;;;15.72;100.00
49645;BME280;36494;50.730;-1.932;2022-10-26T05:54:05;100147.31;;;15.69;100.00
49645;BME280;36494;50.730;-1.932;2022-10-26T05:56:34;100151.50;;;15.69;100.00
49645;BME280;36494;50.730;-1.932;2022-10-26T05:58:57;100148.28;;;15.69;100.00
49645;BME280;36494;50.730;-1.932;2022-10-26T06:01:30;100146.47;;;15.69;100.00
49645;BME280;36494;50.730;-1.932;2022-10-26T06:03:58;100147.29;;;15.72;100.00
49645;BME280;36494;50.730;-1.932;2022-10-26T06:06:13;100155.70;;;15.73;100.00
49645;BME280;36494;50.730;-1.932;2022-10-26T06:08:39;100146.25;;;15.72;100.00
49645;BME280;36494;50.730;-1.932;2022-10-26T06:11:05;100145.43;;;15.67;100.00
49645;BME280;36494;50.730;-1.932;2022-10-26T06:13:30;100146.63;;;15.67;100.00
49645;BME280;36494;50.730;-1.932;2022-10-26T06:16:05;100147.61;;;15.69;100.00
49645;BME280;36494;50.730;-1.932;2022-10-26T06:18:31;100153.62;;;15.73;100.00
49645;BME280;36494;50.730;-1.932;2022-10-26T06:20:50;100155.04;;;15.73;100.00
49645;BME280;36494;50.730;-1.932;2022-10-26T06:23:28;100161.56;;;15.76;100.00
49645;BME280;36494;50.730;-1.932;2022-10-26T06:25:43;100171.91;;;15.81;100.00
49645;BME280;36494;50.730;-1.932;2022-10-26T06:28:10;100172.66;;;15.88;100.00
49645;BME280;36494;50.730;-1.932;2022-10-26T06:30:27;100172.23;;;15.81;100.00
49645;BME280;36494;50.730;-1.932;2022-10-26T06:32:52;100171.55;;;15.90;100.00
49645;BME280;36494;50.730;-1.932;2022-10-26T06:35:24;100177.72;;;15.88;100.00
49645;BME280;36494;50.730;-1.932;2022-10-26T06:37:44;100178.72;;;15.97;100.00
49645;BME280;36494;50.730;-1.932;2022-10-26T06:40:10;100179.86;;;15.94;100.00
49645;BME280;36494;50.730;-1.932;2022-10-26T06:42:35;100194.95;;;15.92;100.00
49645;BME280;36494;50.730;-1.932;2022-10-26T06:45:00;100187.35;;;15.99;100.00
49645;BME280;36494;50.730;-1.932;2022-10-26T06:47:30;100191.43;;;15.97;100.00
49645;BME280;36494;50.730;-1.932;2022-10-26T06:49:59;100190.35;;;15.97;100.00
49645;BME280;36494;50.730;-1.932;2022-10-26T06:52:20;100208.90;;;15.94;100.00
49645;BME280;36494;50.730;-1.932;2022-10-26T06:54:46;100223.73;;;15.97;100.00
49645;BME280;36494;50.730;-1.932;2022-10-26T06:57:08;100219.94;;;16.00;100.00
49645;BME280;36494;50.730;-1.932;2022-10-26T06:59:38;100228.59;;;16.02;100.00
49645;BME280;36494;50.730;-1.932;2022-10-26T07:01:58;100232.08;;;15.98;100.00
49645;BME280;36494;50.730;-1.932;2022-10-26T07:04:24;100235.21;;;16.05;100.00
49645;BME280;36494;50.730;-1.932;2022-10-26T07:06:49;100236.09;;;16.08;100.00
49645;BME280;36494;50.730;-1.932;2022-10-26T07:09:14;100245.50;;;16.07;100.00
49645;BME280;36494;50.730;-1.932;2022-10-26T07:11:40;100247.63;;;15.84;100.00
49645;BME280;36494;50.730;-1.932;2022-10-26T07:14:05;100257.97;;;15.87;100.00
49645;BME280;36494;50.730;-1.932;2022-10-26T07:16:31;100259.53;;;15.81;100.00
49645;BME280;36494;50.730;-1.932;2022-10-26T07:18:56;100259.07;;;15.52;100.00
49645;BME280;36494;50.730;-1.932;2022-10-26T07:21:22;100258.98;;;15.61;100.00
49645;BME280;36494;50.730;-1.932;2022-10-26T07:23:47;100255.96;;;15.57;100.00
49645;BME280;36494;50.730;-1.932;2022-10-26T07:26:12;100252.28;;;15.53;100.00
49645;BME280;36494;50.730;-1.932;2022-10-26T07:28:37;100255.32;;;15.31;100.00
49645;BME280;36494;50.730;-1.932;2022-10-26T07:31:03;100257.21;;;15.34;100.00
49645;BME280;36494;50.730;-1.932;2022-10-26T07:33:28;100266.68;;;15.05;100.00
49645;BME280;36494;50.730;-1.932;2022-10-26T07:35:53;100274.99;;;14.96;100.00
49645;BME280;36494;50.730;-1.932;2022-10-26T07:38:19;100288.33;;;15.04;100.00
49645;BME280;36494;50.730;-1.932;2022-10-26T07:40:44;100291.14;;;15.04;100.00
49645;BME280;36494;50.730;-1.932;2022-10-26T07:43:10;100298.97;;;15.01;100.00
49645;BME280;36494;50.730;-1.932;2022-10-26T07:45:35;100301.33;;;15.08;100.00
49645;BME280;36494;50.730;-1.932;2022-10-26T07:48:00;100305.89;;;15.03;100.00
49645;BME280;36494;50.730;-1.932;2022-10-26T07:50:25;100316.15;;;15.09;100.00
49645;BME280;36494;50.730;-1.932;2022-10-26T07:52:51;100317.82;;;15.14;100.00
49645;BME280;36494;50.730;-1.932;2022-10-26T07:55:17;100321.81;;;15.20;100.00
49645;BME280;36494;50.730;-1.932;2022-10-26T07:57:42;100317.36;;;15.01;100.00
49645;BME280;36494;50.730;-1.932;2022-10-26T08:00:09;100320.47;;;14.99;100.00
49645;BME280;36494;50.730;-1.932;2022-10-26T08:02:34;100308.23;;;15.02;100.00
49645;BME280;36494;50.730;-1.932;2022-10-26T08:04:59;100314.87;;;14.91;100.00
49645;BME280;36494;50.730;-1.932;2022-10-26T08:07:24;100315.09;;;14.90;100.00
49645;BME280;36494;50.730;-1.932;2022-10-26T08:09:49;100330.51;;;14.80;100.00
49645;BME280;36494;50.730;-1.932;2022-10-26T08:12:14;100326.88;;;14.62;100.00
49645;BME280;36494;50.730;-1.932;2022-10-26T08:14:40;100329.97;;;14.61;100.00
49645;BME280;36494;50.730;-1.932;2022-10-26T08:17:05;100318.54;;;14.68;100.00
49645;BME280;36494;50.730;-1.932;2022-10-26T08:19:31;100338.42;;;14.62;100.00
49645;BME280;36494;50.730;-1.932;2022-10-26T08:21:56;100340.57;;;14.73;100.00
49645;BME280;36494;50.730;-1.932;2022-10-26T08:24:22;100348.21;;;14.73;100.00
49645;BME280;36494;50.730;-1.932;2022-10-26T08:26:48;100349.07;;;14.81;100.00
49645;BME280;36494;50.730;-1.932;2022-10-26T08:29:13;100380.87;;;14.86;100.00
49645;BME280;36494;50.730;-1.932;2022-10-26T08:31:38;100372.67;;;14.95;100.00
49645;BME280;36494;50.730;-1.932;2022-10-26T08:34:04;100376.20;;;15.04;100.00
49645;BME280;36494;50.730;-1.932;2022-10-26T08:36:30;100382.48;;;15.03;100.00
49645;BME280;36494;50.730;-1.932;2022-10-26T08:38:55;100379.86;;;15.06;100.00
49645;BME280;36494;50.730;-1.932;2022-10-26T08:41:25;100379.52;;;15.12;100.00
49645;BME280;36494;50.730;-1.932;2022-10-26T08:43:49;100386.37;;;15.08;100.00
49645;BME280;36494;50.730;-1.932;2022-10-26T08:46:14;100384.71;;;15.13;100.00
49645;BME280;36494;50.730;-1.932;2022-10-26T08:48:40;100388.16;;;15.14;100.00
49645;BME280;36494;50.730;-1.932;2022-10-26T08:51:07;100394.74;;;15.17;100.00
49645;BME280;36494;50.730;-1.932;2022-10-26T08:53:32;100393.81;;;15.16;100.00
49645;BME280;36494;50.730;-1.932;2022-10-26T08:55:55;100395.53;;;15.19;100.00
49645;BME280;36494;50.730;-1.932;2022-10-26T08:58:22;100399.36;;;15.19;100.00
49645;BME280;36494;50.730;-1.932;2022-10-26T09:00:47;100404.70;;;15.17;100.00
49645;BME280;36494;50.730;-1.932;2022-10-26T09:03:13;100408.03;;;15.28;100.00
49645;BME280;36494;50.730;-1.932;2022-10-26T09:05:44;100410.66;;;15.27;100.00
49645;BME280;36494;50.730;-1.932;2022-10-26T09:08:08;100412.28;;;15.29;100.00
49645;BME280;36494;50.730;-1.932;2022-10-26T09:10:36;100417.57;;;15.29;100.00
49645;BME280;36494;50.730;-1.932;2022-10-26T09:12:57;100421.52;;;15.26;100.00
49645;BME280;36494;50.730;-1.932;2022-10-26T09:15:27;100428.35;;;15.27;100.00
49645;BME280;36494;50.730;-1.932;2022-10-26T09:17:52;100431.75;;;15.31;100.00
49645;BME280;36494;50.730;-1.932;2022-10-26T09:20:26;100439.82;;;15.35;100.00
49645;BME280;36494;50.730;-1.932;2022-10-26T09:22:44;100438.49;;;15.47;100.00
49645;BME280;36494;50.730;-1.932;2022-10-26T09:25:07;100443.02;;;15.54;100.00
49645;BME280;36494;50.730;-1.932;2022-10-26T09:27:28;100449.06;;;15.60;100.00
49645;BME280;36494;50.730;-1.932;2022-10-26T09:29:54;100451.85;;;15.64;100.00
49645;BME280;36494;50.730;-1.932;2022-10-26T09:32:20;100453.81;;;15.68;100.00
49645;BME280;36494;50.730;-1.932;2022-10-26T09:34:47;100462.98;;;15.67;100.00
49645;BME280;36494;50.730;-1.932;2022-10-26T09:37:14;100471.16;;;15.69;100.00
49645;BME280;36494;50.730;-1.932;2022-10-26T09:39:38;100471.31;;;15.73;100.00
49645;BME280;36494;50.730;-1.932;2022-10-26T09:42:05;100480.29;;;15.75;100.00
49645;BME280;36494;50.730;-1.932;2022-10-26T09:44:29;100479.22;;;15.67;100.00
49645;BME280;36494;50.730;-1.932;2022-10-26T09:46:55;100482.45;;;15.63;100.00
49645;BME280;36494;50.730;-1.932;2022-10-26T09:49:16;100484.53;;;15.65;100.00
49645;BME280;36494;50.730;-1.932;2022-10-26T09:51:43;100491.17;;;15.66;100.00
49645;BME280;36494;50.730;-1.932;2022-10-26T09:54:13;100495.54;;;15.81;100.00
49645;BME280;36494;50.730;-1.932;2022-10-26T09:56:35;100501.22;;;15.83;100.00
49645;BME280;36494;50.730;-1.932;2022-10-26T09:59:03;100500.97;;;15.75;100.00
49645;BME280;36494;50.730;-1.932;2022-10-26T10:01:28;100513.44;;;15.80;100.00
49645;BME280;36494;50.730;-1.932;2022-10-26T10:06:17;100505.37;;;15.94;100.00
49645;BME280;36494;50.730;-1.932;2022-10-26T10:08:41;100519.68;;;15.94;100.00
49645;BME280;36494;50.730;-1.932;2022-10-26T10:11:09;100523.38;;;15.99;100.00
49645;BME280;36494;50.730;-1.932;2022-10-26T10:13:34;100534.82;;;15.91;100.00
49645;BME280;36494;50.730;-1.932;2022-10-26T10:16:03;100543.21;;;15.90;100.00
49645;BME280;36494;50.730;-1.932;2022-10-26T10:18:23;100539.85;;;15.86;100.00
49645;BME280;36494;50.730;-1.932;2022-10-26T10:20:52;100546.09;;;15.88;100.00
49645;BME280;36494;50.730;-1.932;2022-10-26T10:23:26;100553.60;;;15.93;100.00
49645;BME280;36494;50.730;-1.932;2022-10-26T10:25:40;100555.31;;;15.94;100.00
49645;BME280;36494;50.730;-1.932;2022-10-26T10:30:32;100578.24;;;16.04;100.00
49645;BME280;36494;50.730;-1.932;2022-10-26T10:33:04;100568.02;;;15.98;100.00
49645;BME280;36494;50.730;-1.932;2022-10-26T10:35:23;100573.97;;;16.07;100.00
49645;BME280;36494;50.730;-1.932;2022-10-26T10:37:49;100576.35;;;16.08;100.00
49645;BME280;36494;50.730;-1.932;2022-10-26T10:40:17;100580.71;;;15.99;100.00
49645;BME280;36494;50.730;-1.932;2022-10-26T10:42:40;100585.68;;;16.02;100.00
49645;BME280;36494;50.730;-1.932;2022-10-26T10:45:05;100587.15;;;16.08;100.00
49645;BME280;36494;50.730;-1.932;2022-10-26T10:47:31;100595.31;;;16.07;100.00
49645;BME280;36494;50.730;-1.932;2022-10-26T10:49:59;100595.35;;;16.08;100.00
49645;BME280;36494;50.730;-1.932;2022-10-26T10:52:24;100595.20;;;15.93;100.00
49645;BME280;36494;50.730;-1.932;2022-10-26T10:54:46;100611.88;;;16.07;100.00
49645;BME280;36494;50.730;-1.932;2022-10-26T10:57:18;100610.34;;;16.10;100.00
49645;BME280;36494;50.730;-1.932;2022-10-26T10:59:46;100605.29;;;16.21;100.00
49645;BME280;36494;50.730;-1.932;2022-10-26T11:02:22;100610.70;;;16.30;100.00
49645;BME280;36494;50.730;-1.932;2022-10-26T11:04:38;100617.42;;;16.19;100.00
49645;BME280;36494;50.730;-1.932;2022-10-26T11:06:53;100619.91;;;16.17;100.00
49645;BME280;36494;50.730;-1.932;2022-10-26T11:09:20;100621.83;;;16.14;100.00
49645;BME280;36494;50.730;-1.932;2022-10-26T11:11:46;100621.41;;;15.98;100.00
49645;BME280;36494;50.730;-1.932;2022-10-26T11:14:10;100633.63;;;16.06;100.00
49645;BME280;36494;50.730;-1.932;2022-10-26T11:16:37;100636.75;;;16.19;100.00
49645;BME280;36494;50.730;-1.932;2022-10-26T11:19:03;100640.68;;;16.16;100.00
49645;BME280;36494;50.730;-1.932;2022-10-26T11:21:27;100641.05;;;16.24;100.00
49645;BME280;36494;50.730;-1.932;2022-10-26T11:23:54;100643.11;;;16.30;100.00
49645;BME280;36494;50.730;-1.932;2022-10-26T11:26:21;100646.63;;;16.17;100.00
49645;BME280;36494;50.730;-1.932;2022-10-26T11:28:46;100648.65;;;16.24;100.00
49645;BME280;36494;50.730;-1.932;2022-10-26T11:31:10;100647.95;;;16.32;100.00
49645;BME280;36494;50.730;-1.932;2022-10-26T11:33:37;100653.61;;;16.21;100.00
49645;BME280;36494;50.730;-1.932;2022-10-26T11:36:00;100656.27;;;16.29;100.00
49645;BME280;36494;50.730;-1.932;2022-10-26T11:38:29;100658.48;;;16.31;100.00
49645;BME280;36494;50.730;-1.932;2022-10-26T11:40:53;100655.16;;;16.24;100.00
49645;BME280;36494;50.730;-1.932;2022-10-26T11:43:18;100657.44;;;16.23;100.00
49645;BME280;36494;50.730;-1.932;2022-10-26T11:45:42;100663.79;;;16.35;100.00
49645;BME280;36494;50.730;-1.932;2022-10-26T11:48:13;100667.13;;;16.35;100.00
49645;BME280;36494;50.730;-1.932;2022-10-26T11:50:33;100666.26;;;16.35;100.00
49645;BME280;36494;50.730;-1.932;2022-10-26T11:52:58;100681.97;;;16.45;100.00
49645;BME280;36494;50.730;-1.932;2022-10-26T11:55:22;100672.42;;;16.37;100.00
49645;BME280;36494;50.730;-1.932;2022-10-26T11:57:48;100683.01;;;16.49;100.00
49645;BME280;36494;50.730;-1.932;2022-10-26T12:00:15;100687.05;;;16.47;100.00
49645;BME280;36494;50.730;-1.932;2022-10-26T12:02:40;100690.84;;;16.41;100.00
49645;BME280;36494;50.730;-1.932;2022-10-26T12:05:07;100695.76;;;16.51;100.00
49645;BME280;36494;50.730;-1.932;2022-10-26T12:07:32;100696.14;;;16.51;100.00
49645;BME280;36494;50.730;-1.932;2022-10-26T12:09:56;100697.72;;;16.45;100.00
49645;BME280;36494;50.730;-1.932;2022-10-26T12:12:27;100704.28;;;16.49;100.00
49645;BME280;36494;50.730;-1.932;2022-10-26T12:14:53;100700.88;;;16.49;100.00
49645;BME280;36494;50.730;-1.932;2022-10-26T12:17:16;100719.50;;;16.57;100.00
49645;BME280;36494;50.730;-1.932;2022-10-26T12:19:44;100709.41;;;16.53;100.00
49645;BME280;36494;50.730;-1.932;2022-10-26T12:22:08;100720.89;;;16.55;100.00
49645;BME280;36494;50.730;-1.932;2022-10-26T12:24:31;100725.06;;;16.61;100.00